createdAt,value
2023-02-06T00:00:54.363Z,96.87
2023-02-06T00:03:22.596Z,115.70
2023-02-06T00:05:57.518Z,105.40
2023-02-06T00:08:25.515Z,107.50
2023-02-06T00:10:55.275Z,117.23
2023-02-06T00:13:23.341Z,129.43
2023-02-06T00:15:51.434Z,111.57
2023-02-06T00:18:19.420Z,106.67
2023-02-06T00:20:47.431Z,94.70
2023-02-06T00:23:15.551Z,115.77
2023-02-06T00:25:43.753Z,105.47
2023-02-06T00:28:13.130Z,92.63
2023-02-06T00:30:41.222Z,117.90
2023-02-06T00:33:09.225Z,106.97
2023-02-06T00:35:37.701Z,107.97
2023-02-06T00:38:06.750Z,107.77
2023-02-06T00:40:34.747Z,98.53
2023-02-06T00:43:02.700Z,98.70
2023-02-06T00:45:32.133Z,118.30
2023-02-06T00:48:00.207Z,112.03
2023-02-06T00:50:28.681Z,93.33
2023-02-06T00:52:56.667Z,123.83
2023-02-06T00:55:25.042Z,115.97
2023-02-06T00:57:53.108Z,130.53
2023-02-06T01:00:21.149Z,113.70
2023-02-06T01:02:50.446Z,112.27
2023-02-06T01:05:18.494Z,133.33
2023-02-06T01:07:46.496Z,125.60
2023-02-06T01:10:14.768Z,143.77
2023-02-06T01:12:42.901Z,123.30
2023-02-06T01:15:13.990Z,148.37
2023-02-06T01:17:42.911Z,158.40
2023-02-06T01:20:14.762Z,157.43
2023-02-06T01:22:43.013Z,142.40
2023-02-06T01:25:11.208Z,151.47
2023-02-06T01:27:39.574Z,154.23
2023-02-06T01:30:09.362Z,157.63
2023-02-06T01:32:38.795Z,148.40
2023-02-06T01:35:07.950Z,133.20
2023-02-06T01:37:37.866Z,126.70
2023-02-06T01:40:07.367Z,138.23
2023-02-06T01:42:35.864Z,125.23
2023-02-06T01:45:53.007Z,137.43
2023-02-06T01:48:26.155Z,146.27
2023-02-06T01:50:56.774Z,130.90
2023-02-06T01:53:27.194Z,136.73
2023-02-06T01:55:57.287Z,123.47
2023-02-06T01:58:30.067Z,142.07
2023-02-06T02:01:00.246Z,139.17
2023-02-06T02:03:29.740Z,146.53
2023-02-06T02:06:01.350Z,137.63
2023-02-06T02:08:36.545Z,137.83
2023-02-06T02:11:06.631Z,143.83
2023-02-06T02:13:36.531Z,131.43
2023-02-06T02:16:13.979Z,143.73
2023-02-06T02:19:00.744Z,155.27
2023-02-06T02:22:18.335Z,120.03
2023-02-06T02:25:21.833Z,123.53
2023-02-06T02:28:22.451Z,134.03
2023-02-06T02:31:09.339Z,138.27
2023-02-06T02:33:59.433Z,126.37
2023-02-06T02:36:33.571Z,116.47
2023-02-06T02:39:10.094Z,116.27
2023-02-06T02:41:44.583Z,106.17
2023-02-06T02:44:17.490Z,99.33
2023-02-06T02:46:49.118Z,124.80
2023-02-06T02:49:21.256Z,116.03
2023-02-06T02:51:51.455Z,115.27
2023-02-06T02:54:19.682Z,110.47
2023-02-06T02:56:48.144Z,109.27
2023-02-06T02:59:23.970Z,126.23
2023-02-06T03:01:57.500Z,112.47
2023-02-06T03:04:29.891Z,124.77
2023-02-06T03:07:09.569Z,111.50
2023-02-06T03:09:48.463Z,114.03
2023-02-06T03:12:23.856Z,105.17
2023-02-06T03:14:56.688Z,104.83
2023-02-06T03:17:32.569Z,112.33
2023-02-06T03:20:03.593Z,111.40
2023-02-06T03:22:35.673Z,111.73
2023-02-06T03:25:05.698Z,93.27
2023-02-06T03:27:34.863Z,105.73
2023-02-06T03:30:05.407Z,97.57
2023-02-06T03:32:37.821Z,96.57
2023-02-06T03:35:09.423Z,96.37
2023-02-06T03:37:39.923Z,87.10
2023-02-06T03:40:10.371Z,82.03
2023-02-06T03:42:43.509Z,89.10
2023-02-06T03:45:25.519Z,84.00
2023-02-06T03:47:55.423Z,87.43
2023-02-06T03:50:25.514Z,102.50
2023-02-06T03:52:56.393Z,85.70
2023-02-06T03:55:25.304Z,291.30
2023-02-06T03:57:56.970Z,230.30
2023-02-06T04:00:25.516Z,136.07
2023-02-06T04:03:05.918Z,79.20
2023-02-06T04:05:34.138Z,84.13
2023-02-06T04:08:03.610Z,75.27
2023-02-06T04:10:31.641Z,82.53
2023-02-06T04:12:59.620Z,90.03
2023-02-06T04:15:27.624Z,77.10
2023-02-06T04:18:00.973Z,74.50
2023-02-06T04:20:30.313Z,70.83
2023-02-06T04:22:59.193Z,178.80
2023-02-06T04:25:28.734Z,362.77
2023-02-06T04:27:56.858Z,197.97
2023-02-06T04:30:24.924Z,139.87
2023-02-06T04:32:53.181Z,101.13
2023-02-06T04:35:21.162Z,104.27
2023-02-06T04:37:49.169Z,98.87
2023-02-06T04:40:18.008Z,100.60
2023-02-06T04:42:47.701Z,94.07
2023-02-06T04:45:15.898Z,94.50
2023-02-06T04:47:44.013Z,86.27
2023-02-06T04:50:12.011Z,85.30
2023-02-06T04:52:39.962Z,85.83
2023-02-06T04:55:08.879Z,88.33
2023-02-06T04:57:36.955Z,87.30
2023-02-06T05:00:07.496Z,86.27
2023-02-06T05:02:39.558Z,93.87
2023-02-06T05:05:09.537Z,90.77
2023-02-06T05:07:37.756Z,83.97
2023-02-06T05:10:06.611Z,87.23
2023-02-06T05:12:34.626Z,85.17
2023-02-06T05:15:02.602Z,90.47
2023-02-06T05:17:31.894Z,77.87
2023-02-06T05:20:00.223Z,82.60
2023-02-06T05:22:28.906Z,86.27
2023-02-06T05:24:56.892Z,82.93
2023-02-06T05:27:25.760Z,81.27
2023-02-06T05:29:53.736Z,72.40
2023-02-06T05:32:21.690Z,71.43
2023-02-06T05:34:51.017Z,82.87
2023-02-06T05:37:18.912Z,70.83
2023-02-06T05:39:46.872Z,72.70
2023-02-06T05:42:14.863Z,73.70
2023-02-06T05:44:42.850Z,69.07
2023-02-06T05:47:10.797Z,65.90
2023-02-06T05:49:38.722Z,68.07
2023-02-06T05:52:07.978Z,60.70
2023-02-06T05:54:35.914Z,68.33
2023-02-06T05:57:04.316Z,75.07
2023-02-06T05:59:32.339Z,60.87
2023-02-06T06:02:00.337Z,64.20
2023-02-06T06:04:28.451Z,76.33
2023-02-06T06:06:56.408Z,74.13
2023-02-06T06:09:25.733Z,73.23
2023-02-06T06:11:53.650Z,56.57
2023-02-06T06:14:21.565Z,73.50
2023-02-06T06:16:49.590Z,66.70
2023-02-06T06:19:17.562Z,73.13
2023-02-06T06:21:45.798Z,66.40
2023-02-06T06:24:14.077Z,59.77
2023-02-06T06:26:43.439Z,69.87
2023-02-06T06:29:11.404Z,70.10
2023-02-06T06:31:39.450Z,61.60
2023-02-06T06:34:07.463Z,58.03
2023-02-06T06:36:35.446Z,66.17
2023-02-06T06:39:03.461Z,74.77
2023-02-06T06:41:31.446Z,64.23
2023-02-06T06:44:01.287Z,71.53
2023-02-06T06:46:29.694Z,65.30
2023-02-06T06:48:57.907Z,63.90
2023-02-06T06:51:26.767Z,66.87
2023-02-06T06:53:54.965Z,71.70
2023-02-06T06:56:22.940Z,68.03
2023-02-06T06:58:51.828Z,70.70
2023-02-06T07:01:21.244Z,58.80
2023-02-06T07:03:49.305Z,63.57
2023-02-06T07:06:17.416Z,70.33
2023-02-06T07:08:45.350Z,67.37
2023-02-06T07:11:15.290Z,56.57
2023-02-06T07:13:43.334Z,56.93
2023-02-06T07:16:11.500Z,60.30
2023-02-06T07:18:42.915Z,66.87
2023-02-06T07:21:11.749Z,55.37
2023-02-06T07:23:40.068Z,61.13
2023-02-06T07:26:08.018Z,58.27
2023-02-06T07:28:36.056Z,64.80
2023-02-06T07:31:05.103Z,61.87
2023-02-06T07:33:33.130Z,62.07
2023-02-06T07:36:04.186Z,64.53
2023-02-06T07:38:32.459Z,68.63
2023-02-06T07:41:02.790Z,71.43
2023-02-06T07:43:31.145Z,67.23
2023-02-06T07:46:00.880Z,68.27
2023-02-06T07:48:29.427Z,64.87
2023-02-06T07:50:57.541Z,80.50
2023-02-06T07:53:26.845Z,93.10
2023-02-06T07:55:54.773Z,90.20
2023-02-06T07:58:22.790Z,89.17
2023-02-06T08:00:50.781Z,74.70
2023-02-06T08:03:19.119Z,78.67
2023-02-06T08:05:47.069Z,72.60
2023-02-06T08:08:14.991Z,75.47
2023-02-06T08:10:44.237Z,79.97
2023-02-06T08:13:12.182Z,71.87
2023-02-06T08:15:40.140Z,70.83
2023-02-06T08:18:09.106Z,74.73
2023-02-06T08:20:37.198Z,76.60
2023-02-06T08:23:05.170Z,78.77
2023-02-06T08:25:33.074Z,81.57
2023-02-06T08:28:02.426Z,64.17
2023-02-06T08:30:32.338Z,76.37
2023-02-06T08:33:00.560Z,72.97
2023-02-06T08:35:28.466Z,67.47
2023-02-06T08:37:56.438Z,72.97
2023-02-06T08:40:24.466Z,72.90
2023-02-06T08:42:52.424Z,74.27
2023-02-06T08:45:21.834Z,66.73
2023-02-06T08:47:49.754Z,76.87
2023-02-06T08:50:17.988Z,160.63
2023-02-06T08:52:46.011Z,108.53
2023-02-06T08:55:13.946Z,81.73
2023-02-06T08:57:41.864Z,68.63
2023-02-06T09:00:10.976Z,72.50
2023-02-06T09:02:40.254Z,67.37
2023-02-06T09:05:08.543Z,65.97
2023-02-06T09:07:36.450Z,62.53
2023-02-06T09:10:04.550Z,58.57
2023-02-06T09:12:32.469Z,54.27
2023-02-06T09:15:00.453Z,65.30
2023-02-06T09:17:31.481Z,46.43
2023-02-06T09:20:00.947Z,52.93
2023-02-06T09:22:30.439Z,42.00
2023-02-06T09:24:58.389Z,41.60
2023-02-06T09:27:26.316Z,37.47
2023-02-06T09:29:54.257Z,44.83
2023-02-06T09:32:22.214Z,41.27
2023-02-06T09:34:50.217Z,42.77
2023-02-06T09:37:19.513Z,41.80
2023-02-06T09:39:47.428Z,39.50
2023-02-06T09:42:20.338Z,39.27
2023-02-06T09:44:53.464Z,40.77
2023-02-06T09:47:27.222Z,36.67
2023-02-06T09:49:58.590Z,31.07
2023-02-06T09:52:52.197Z,29.40
2023-02-06T09:55:30.259Z,25.40
2023-02-06T09:58:08.351Z,31.90
2023-02-06T10:00:42.592Z,29.80
2023-02-06T10:03:37.619Z,29.73
2023-02-06T10:06:20.211Z,27.73
2023-02-06T10:08:56.278Z,27.73
2023-02-06T10:11:33.733Z,32.30
2023-02-06T10:14:04.957Z,24.63
2023-02-06T10:16:39.666Z,25.60
2023-02-06T10:19:15.761Z,26.37
2023-02-06T10:21:47.437Z,26.03
2023-02-06T10:24:25.016Z,24.93
2023-02-06T10:26:54.878Z,21.93
2023-02-06T10:29:27.894Z,29.53
2023-02-06T10:32:12.410Z,23.27
2023-02-06T10:34:58.352Z,19.80
2023-02-06T10:37:47.826Z,17.07
2023-02-06T10:40:36.461Z,18.13
2023-02-06T10:43:13.343Z,20.53
2023-02-06T10:45:45.455Z,14.33
2023-02-06T10:48:24.257Z,16.90
2023-02-06T10:50:57.479Z,13.40
2023-02-06T10:53:31.499Z,12.77
2023-02-06T10:56:04.094Z,12.33
2023-02-06T10:58:37.131Z,13.47
2023-02-06T11:01:23.623Z,14.73
2023-02-06T11:03:59.367Z,11.03
2023-02-06T11:06:29.843Z,11.73
2023-02-06T11:08:57.886Z,8.93
2023-02-06T11:11:30.640Z,11.07
2023-02-06T11:14:05.349Z,10.87
2023-02-06T11:16:37.512Z,12.53
2023-02-06T11:19:17.389Z,14.33
2023-02-06T11:21:55.262Z,15.07
2023-02-06T11:24:24.683Z,11.83
2023-02-06T11:26:57.450Z,9.67
2023-02-06T11:29:27.845Z,13.73
2023-02-06T11:31:59.655Z,14.77
2023-02-06T11:34:31.064Z,18.23
2023-02-06T11:37:00.981Z,13.63
2023-02-06T11:39:31.875Z,8.90
2023-02-06T11:42:05.351Z,8.53
2023-02-06T11:44:38.282Z,9.03
2023-02-06T11:47:22.401Z,8.33
2023-02-06T11:49:50.379Z,11.57
2023-02-06T11:52:30.413Z,10.20
2023-02-06T11:55:02.125Z,15.70
2023-02-06T11:57:35.281Z,15.10
2023-02-06T12:00:06.435Z,9.90
2023-02-06T12:02:40.077Z,21.30
2023-02-06T12:05:13.536Z,15.53
2023-02-06T12:07:46.310Z,13.57
2023-02-06T12:10:15.879Z,16.20
2023-02-06T12:12:49.620Z,6.67
2023-02-06T12:15:45.920Z,10.83
2023-02-06T12:18:15.254Z,17.73
2023-02-06T12:20:50.070Z,18.77
2023-02-06T12:23:23.459Z,17.50
2023-02-06T12:25:55.158Z,14.80
2023-02-06T12:28:28.917Z,14.57
2023-02-06T12:30:59.721Z,14.43
2023-02-06T12:33:34.674Z,12.83
2023-02-06T12:36:07.632Z,14.50
2023-02-06T12:38:44.111Z,14.33
2023-02-06T12:41:27.970Z,17.03
2023-02-06T12:44:02.964Z,14.53
2023-02-06T12:46:31.888Z,14.10
2023-02-06T12:49:07.807Z,11.77
2023-02-06T12:51:40.453Z,14.07
2023-02-06T12:54:15.694Z,17.63
2023-02-06T12:56:47.800Z,19.80
2023-02-06T12:59:58.470Z,14.60
2023-02-06T13:02:45.699Z,14.77
2023-02-06T13:05:22.861Z,16.37
2023-02-06T13:07:51.695Z,14.87
2023-02-06T13:10:21.650Z,14.20
2023-02-06T13:12:55.603Z,11.03
2023-02-06T13:15:28.144Z,15.43
2023-02-06T13:17:57.834Z,11.97
2023-02-06T13:20:27.459Z,13.70
2023-02-06T13:23:16.534Z,12.80
2023-02-06T13:25:55.888Z,13.27
2023-02-06T13:29:00.778Z,12.30
2023-02-06T13:31:35.446Z,9.20
2023-02-06T13:34:11.909Z,11.90
2023-02-06T13:36:53.884Z,12.70
2023-02-06T13:39:31.431Z,12.63
2023-02-06T13:42:04.345Z,10.07
2023-02-06T13:44:35.005Z,10.67
2023-02-06T13:47:35.733Z,11.40
2023-02-06T13:50:52.959Z,8.50
2023-02-06T13:53:34.072Z,7.37
2023-02-06T13:56:15.625Z,6.50
2023-02-06T13:58:49.439Z,8.90
2023-02-06T14:01:22.860Z,7.03
2023-02-06T14:03:54.730Z,7.20
2023-02-06T14:06:49.415Z,6.53
2023-02-06T14:09:31.407Z,6.97
2023-02-06T14:12:26.817Z,5.90
2023-02-06T14:15:12.420Z,6.13
2023-02-06T14:18:00.895Z,8.60
2023-02-06T14:20:39.742Z,5.80
2023-02-06T14:23:16.413Z,7.20
2023-02-06T14:26:04.661Z,7.70
2023-02-06T14:28:45.040Z,7.30
2023-02-06T14:31:33.248Z,7.33
2023-02-06T14:34:17.388Z,10.27
2023-02-06T14:36:59.122Z,12.00
2023-02-06T14:39:52.670Z,7.80
2023-02-06T14:42:25.123Z,8.07
2023-02-06T14:44:57.350Z,13.37
2023-02-06T14:47:28.526Z,8.50
2023-02-06T14:49:58.390Z,9.77
2023-02-06T14:52:30.689Z,8.83
2023-02-06T14:54:58.755Z,11.60
2023-02-06T14:57:29.003Z,12.13
2023-02-06T14:59:59.867Z,10.83
2023-02-06T15:02:30.980Z,16.40
2023-02-06T15:04:59.781Z,16.77
2023-02-06T15:07:32.719Z,13.17
2023-02-06T15:10:05.712Z,13.83
2023-02-06T15:12:34.848Z,14.63
2023-02-06T15:15:16.853Z,14.23
2023-02-06T15:17:45.172Z,12.27
2023-02-06T15:20:24.999Z,11.20
2023-02-06T15:23:04.947Z,15.40
2023-02-06T15:25:58.211Z,13.23
2023-02-06T15:28:33.595Z,17.20
2023-02-06T15:31:03.342Z,14.70
2023-02-06T15:33:34.067Z,19.87
2023-02-06T15:36:04.389Z,15.90
2023-02-06T15:38:35.031Z,16.77
2023-02-06T15:41:07.598Z,20.63
2023-02-06T15:43:36.546Z,16.93
2023-02-06T15:46:06.583Z,28.20
2023-02-06T15:48:39.148Z,51.63
2023-02-06T15:51:20.658Z,41.00
2023-02-06T15:53:51.478Z,44.77
2023-02-06T15:56:25.844Z,78.10
2023-02-06T15:58:59.302Z,59.73
2023-02-06T16:01:28.830Z,28.40
2023-02-06T16:03:59.742Z,30.57
2023-02-06T16:06:27.741Z,32.57
2023-02-06T16:09:00.932Z,33.90
2023-02-06T16:11:50.922Z,30.33
2023-02-06T16:14:29.252Z,28.37
2023-02-06T16:16:58.749Z,32.33
2023-02-06T16:19:39.911Z,36.23
2023-02-06T16:22:17.770Z,33.93
2023-02-06T16:24:48.245Z,43.13
2023-02-06T16:27:22.138Z,47.43
2023-02-06T16:29:52.657Z,40.23
2023-02-06T16:32:24.984Z,35.23
2023-02-06T16:34:53.637Z,36.50
2023-02-06T16:37:26.400Z,26.73
2023-02-06T16:39:56.351Z,35.63
2023-02-06T16:42:27.160Z,43.03
2023-02-06T16:45:00.970Z,42.87
2023-02-06T16:47:29.602Z,53.37
2023-02-06T16:49:57.824Z,44.53
2023-02-06T16:52:29.013Z,41.87
2023-02-06T16:54:59.814Z,47.73
2023-02-06T16:57:33.256Z,51.77
2023-02-06T17:00:01.857Z,214.60
2023-02-06T17:02:30.532Z,131.80
2023-02-06T17:04:58.619Z,240.47
2023-02-06T17:07:28.827Z,204.13
2023-02-06T17:09:59.453Z,124.87
2023-02-06T17:12:27.437Z,130.60
2023-02-06T17:14:55.472Z,120.73
2023-02-06T17:17:24.369Z,155.87
2023-02-06T17:19:53.326Z,160.33
2023-02-06T17:22:21.510Z,185.00
2023-02-06T17:24:49.632Z,164.37
2023-02-06T17:27:20.856Z,144.30
2023-02-06T17:29:50.523Z,130.27
2023-02-06T17:32:22.189Z,136.60
2023-02-06T17:34:51.511Z,140.60
2023-02-06T17:37:21.606Z,119.43
2023-02-06T17:39:50.997Z,86.60
2023-02-06T17:42:21.925Z,79.40
2023-02-06T17:44:50.105Z,72.33
2023-02-06T17:47:18.112Z,61.60
2023-02-06T17:49:46.799Z,60.40
2023-02-06T17:52:15.184Z,62.17
2023-02-06T17:54:43.245Z,74.23
2023-02-06T17:57:13.279Z,75.53
2023-02-06T17:59:42.741Z,74.67
2023-02-06T18:02:13.663Z,105.97
2023-02-06T18:04:41.717Z,61.27
2023-02-06T18:07:09.825Z,68.47
2023-02-06T18:09:38.031Z,69.70
2023-02-06T18:12:06.038Z,44.13
2023-02-06T18:14:34.023Z,35.43
2023-02-06T18:17:03.807Z,36.60
2023-02-06T18:19:31.873Z,39.40
2023-02-06T18:22:00.216Z,29.63
2023-02-06T18:24:28.164Z,34.87
2023-02-06T18:26:56.208Z,39.73
2023-02-06T18:29:24.208Z,46.53
2023-02-06T18:31:52.185Z,52.93
2023-02-06T18:34:21.879Z,88.63
2023-02-06T18:36:49.847Z,200.90
2023-02-06T18:39:17.788Z,130.67
2023-02-06T18:42:03.129Z,106.83
2023-02-06T18:44:31.916Z,105.90
2023-02-06T18:46:59.909Z,96.77
2023-02-06T18:49:29.192Z,101.63
2023-02-06T18:51:57.110Z,110.97
2023-02-06T18:54:25.038Z,80.77
2023-02-06T18:56:53.005Z,146.10
2023-02-06T18:59:21.159Z,166.70
2023-02-06T19:01:51.971Z,186.50
2023-02-06T19:04:20.514Z,126.03
2023-02-06T19:06:50.148Z,139.43
2023-02-06T19:09:20.619Z,127.67
2023-02-06T19:11:49.568Z,146.87
2023-02-06T19:14:22.535Z,125.37
2023-02-06T19:16:51.601Z,110.00
2023-02-06T19:19:20.002Z,142.07
2023-02-06T19:21:49.303Z,123.20
2023-02-06T19:24:19.513Z,107.37
2023-02-06T19:26:47.592Z,94.73
2023-02-06T19:29:19.328Z,79.77
2023-02-06T19:31:52.193Z,90.83
2023-02-06T19:34:20.190Z,95.10
2023-02-06T19:36:49.441Z,85.23
2023-02-06T19:39:17.357Z,74.33
2023-02-06T19:41:45.290Z,77.33
2023-02-06T19:44:14.676Z,72.07
2023-02-06T19:46:42.637Z,63.47
2023-02-06T19:49:12.217Z,52.87
2023-02-06T19:51:42.400Z,60.30
2023-02-06T19:54:11.731Z,65.83
2023-02-06T19:56:42.339Z,63.53
2023-02-06T19:59:18.038Z,104.07
2023-02-06T20:01:47.428Z,174.00
2023-02-06T20:04:15.652Z,131.13
2023-02-06T20:06:44.840Z,116.57
2023-02-06T20:09:16.477Z,105.20
2023-02-06T20:11:45.152Z,118.47
2023-02-06T20:14:13.664Z,126.50
2023-02-06T20:16:42.781Z,90.20
2023-02-06T20:19:13.313Z,114.30
2023-02-06T20:21:43.571Z,101.27
2023-02-06T20:24:14.748Z,107.67
2023-02-06T20:26:43.991Z,96.53
2023-02-06T20:29:19.926Z,105.17
2023-02-06T20:31:48.055Z,107.90
2023-02-06T20:34:16.055Z,88.83
2023-02-06T20:36:44.514Z,99.73
2023-02-06T20:39:14.909Z,100.87
2023-02-06T20:41:44.034Z,111.43
2023-02-06T20:44:13.593Z,81.73
2023-02-06T20:46:42.201Z,100.87
2023-02-06T20:49:16.749Z,105.50
2023-02-06T20:51:44.682Z,102.30
2023-02-06T20:54:14.416Z,110.43
2023-02-06T20:56:42.933Z,103.93
2023-02-06T20:59:14.297Z,105.60
2023-02-06T21:01:42.352Z,105.73
2023-02-06T21:04:12.094Z,126.90
2023-02-06T21:06:40.785Z,119.40
2023-02-06T21:09:09.728Z,135.77
2023-02-06T21:11:42.083Z,110.30
2023-02-06T21:14:10.514Z,100.47
2023-02-06T21:16:39.183Z,106.50
2023-02-06T21:19:09.127Z,114.67
2023-02-06T21:21:37.471Z,108.67
2023-02-06T21:24:06.219Z,110.63
2023-02-06T21:26:34.914Z,106.63
2023-02-06T21:29:04.867Z,116.47
2023-02-06T21:31:37.495Z,114.63
2023-02-06T21:34:09.075Z,130.03
2023-02-06T21:36:39.128Z,103.57
2023-02-06T21:39:07.607Z,100.00
2023-02-06T21:41:37.032Z,96.97
2023-02-06T21:44:06.850Z,95.83
2023-02-06T21:46:35.021Z,91.00
2023-02-06T21:49:02.978Z,119.77
2023-02-06T21:51:31.480Z,109.30
2023-02-06T21:53:59.473Z,169.43
2023-02-06T21:56:28.981Z,138.90
2023-02-06T21:58:57.708Z,139.53
2023-02-06T22:01:30.113Z,118.27
2023-02-06T22:03:58.684Z,121.60
2023-02-06T22:06:27.196Z,134.50
2023-02-06T22:08:56.693Z,131.37
2023-02-06T22:11:27.053Z,141.57
2023-02-06T22:13:59.460Z,125.43
2023-02-06T22:16:29.419Z,117.53
2023-02-06T22:18:58.013Z,111.83
2023-02-06T22:21:27.905Z,143.03
2023-02-06T22:23:58.501Z,127.17
2023-02-06T22:26:27.676Z,115.20
2023-02-06T22:28:55.615Z,121.63
2023-02-06T22:31:25.164Z,140.00
2023-02-06T22:33:55.059Z,118.47
2023-02-06T22:36:24.864Z,121.90
2023-02-06T22:38:56.672Z,121.43
2023-02-06T22:41:24.766Z,127.93
2023-02-06T22:43:53.417Z,145.93
2023-02-06T22:46:26.652Z,139.67
2023-02-06T22:48:56.143Z,114.37
2023-02-06T22:51:24.842Z,132.73
2023-02-06T22:53:53.285Z,133.47
2023-02-06T22:56:31.392Z,163.53
2023-02-06T22:59:01.570Z,157.73
2023-02-06T23:01:32.925Z,209.20
2023-02-06T23:04:03.569Z,232.57
2023-02-06T23:06:32.865Z,176.43
2023-02-06T23:09:02.626Z,149.90
2023-02-06T23:11:31.898Z,151.40
2023-02-06T23:14:02.260Z,154.53
2023-02-06T23:16:31.914Z,146.67
2023-02-06T23:19:04.640Z,145.23
2023-02-06T23:21:33.950Z,147.40
2023-02-06T23:24:02.000Z,122.60
2023-02-06T23:26:30.467Z,128.67
2023-02-06T23:28:59.234Z,127.73
2023-02-06T23:31:28.328Z,120.27
2023-02-06T23:33:56.809Z,121.80
2023-02-06T23:36:27.502Z,130.83
2023-02-06T23:38:56.158Z,139.73
2023-02-06T23:41:27.161Z,127.83
2023-02-06T23:43:56.840Z,131.73
2023-02-06T23:46:25.564Z,147.87
2023-02-06T23:48:54.128Z,130.20
2023-02-06T23:51:23.495Z,136.43
2023-02-06T23:53:53.119Z,162.37
2023-02-06T23:56:23.431Z,148.60
2023-02-06T23:58:52.087Z,166.00
